Time;durP1;ratioP1;P1;durP2;ratioP2;P2;SDS_P1;SDS_P2;PMS_P1;PMS_P2;Temp;Humidity;BMP_temperature;BMP_pressure;BME280_temperature;BME280_humidity;BME280_pressure;Samples;Min_cycle;Max_cycle;Signal;HPM_P1;HPM_P2
2023/06/08 00:09:14;;;;;;;3.78;2.80;;;9.00;99.90;;;;;;21067933;28;20120;-44
2023/06/08 00:19:16;;;;;;;5.00;3.10;;;9.30;99.90;;;;;;21066725;28;20065;-55
2023/06/08 00:29:17;;;;;;;3.88;2.90;;;9.10;99.90;;;;;;21066549;28;20036;-44
2023/06/08 00:39:19;;;;;;;4.15;3.17;;;8.80;99.90;;;;;;21066078;28;20040;-44
2023/06/08 00:49:22;;;;;;;3.75;2.97;;;8.80;99.90;;;;;;21065414;28;20031;-48
2023/06/08 00:59:23;;;;;;;4.35;3.13;;;8.60;99.90;;;;;;21065248;28;20370;-44
2023/06/08 01:09:33;;;;;;;3.70;3.30;;;8.60;99.90;;;;;;21065065;28;20037;-51
2023/06/08 01:20:03;;;;;;;5.05;3.35;;;8.50;99.90;;;;;;21046160;28;20036;-52
2023/06/08 01:30:06;;;;;;;3.03;2.53;;;8.40;99.90;;;;;;20805469;28;20050;-51
2023/06/08 01:40:29;;;;;;;5.13;3.70;;;8.40;99.90;;;;;;20809107;28;20103;-43
2023/06/08 01:50:33;;;;;;;4.97;3.45;;;8.40;99.90;;;;;;20819577;28;20042;-45
2023/06/08 02:00:35;;;;;;;5.93;3.75;;;8.50;99.90;;;;;;20867671;28;20044;-45
2023/06/08 02:10:37;;;;;;;4.50;3.38;;;8.50;99.90;;;;;;21058384;28;20032;-44
2023/06/08 02:20:42;;;;;;;5.07;3.67;;;8.60;99.90;;;;;;21057970;28;20185;-43
2023/06/08 02:30:44;;;;;;;5.55;3.88;;;8.60;99.90;;;;;;21074915;28;20385;-46
2023/06/08 02:40:45;;;;;;;5.68;4.00;;;8.60;99.90;;;;;;21056061;28;20131;-53
2023/06/08 02:50:49;;;;;;;7.20;3.65;;;8.50;99.90;;;;;;21054192;28;20085;-45
2023/06/08 03:00:53;;;;;;;5.75;4.40;;;8.50;99.90;;;;;;21072988;28;20470;-51
2023/06/08 03:11:22;;;;;;;;;;;8.50;99.90;;;;;;21071671;28;20117;-49
2023/06/08 03:21:28;;;;;;;12.60;6.40;;;8.60;99.90;;;;;;21053182;28;19972;-46
2023/06/08 03:31:36;;;;;;;7.55;5.95;;;8.70;99.90;;;;;;21051860;28;20431;-51
2023/06/08 03:41:41;;;;;;;8.20;6.45;;;8.70;99.90;;;;;;20984967;28;20056;-43
2023/06/08 03:51:42;;;;;;;8.20;6.57;;;8.70;99.90;;;;;;21002872;28;20076;-48
2023/06/08 04:01:45;;;;;;;8.10;6.55;;;8.70;99.90;;;;;;21004484;28;20078;-47
2023/06/08 04:11:48;;;;;;;4.95;4.10;;;8.90;99.90;;;;;;21015313;28;20036;-50
2023/06/08 04:21:56;;;;;;;5.85;4.32;;;8.90;99.90;;;;;;21017373;28;20028;-50
2023/06/08 04:31:59;;;;;;;7.28;4.70;;;9.00;99.90;;;;;;21004797;28;20024;-43
2023/06/08 04:42:02;;;;;;;5.28;4.03;;;9.00;99.90;;;;;;21010680;28;20551;-51
2023/06/08 04:52:08;;;;;;;5.57;4.57;;;9.20;99.90;;;;;;21031584;28;20036;-43
2023/06/08 05:02:10;;;;;;;5.28;4.50;;;9.40;99.90;;;;;;21027595;28;20472;-45
2023/06/08 05:12:11;;;;;;;5.93;4.15;;;9.60;99.90;;;;;;21005187;28;20028;-48
2023/06/08 05:22:13;;;;;;;5.50;4.88;;;9.70;99.90;;;;;;21033151;28;20039;-43
2023/06/08 05:32:15;;;;;;;6.25;5.55;;;10.00;99.90;;;;;;21025026;28;20033;-50
2023/06/08 05:42:17;;;;;;;8.20;6.30;;;10.30;99.90;;;;;;21009516;28;20102;-42
2023/06/08 05:52:18;;;;;;;6.88;5.68;;;10.80;99.90;;;;;;21026578;28;20032;-44
2023/06/08 06:02:20;;;;;;;7.00;5.40;;;11.40;99.90;;;;;;21016721;28;20028;-44
2023/06/08 06:12:21;;;;;;;5.60;3.88;;;11.90;99.90;;;;;;21011553;28;20473;-45
2023/06/08 06:22:24;;;;;;;3.78;3.13;;;12.90;99.90;;;;;;21016524;28;20086;-47
2023/06/08 06:32:26;;;;;;;6.03;3.72;;;14.00;99.90;;;;;;21017667;28;20029;-46
2023/06/08 06:42:28;;;;;;;3.92;3.53;;;15.60;99.90;;;;;;20971709;28;20056;-48
2023/06/08 06:52:39;;;;;;;3.60;3.13;;;17.10;99.90;;;;;;21012868;28;20037;-56
2023/06/08 07:02:42;;;;;;;3.90;2.38;;;19.20;99.90;;;;;;21028858;28;20027;-56
2023/06/08 07:12:43;;;;;;;3.58;2.60;;;21.20;99.90;;;;;;21011639;28;20032;-57
2023/06/08 07:22:45;;;;;;;2.80;2.60;;;23.00;99.90;;;;;;21012438;28;20029;-58
2023/06/08 07:32:48;;;;;;;2.30;2.10;;;24.30;97.30;;;;;;21009838;28;20032;-58
2023/06/08 07:42:51;;;;;;;2.60;2.40;;;25.70;97.50;;;;;;20994750;28;20464;-57
2023/06/08 07:52:53;;;;;;;2.28;2.08;;;25.30;97.20;;;;;;20993441;28;20033;-58
2023/06/08 08:02:54;;;;;;;3.05;2.47;;;25.50;97.40;;;;;;21008914;28;20028;-57
2023/06/08 08:12:56;;;;;;;2.97;2.50;;;25.40;95.40;;;;;;21001735;28;20093;-49
2023/06/08 08:22:57;;;;;;;4.10;3.70;;;25.60;96.20;;;;;;20986390;28;20036;-58
2023/06/08 08:33:00;;;;;;;3.50;3.20;;;24.00;97.90;;;;;;21013263;28;20394;-58
2023/06/08 08:43:10;;;;;;;3.50;3.17;;;23.60;99.40;;;;;;20974608;28;20445;-45
2023/06/08 08:53:14;;;;;;;4.70;3.30;;;24.00;98.70;;;;;;21004368;28;20028;-56
2023/06/08 09:03:16;;;;;;;3.83;3.42;;;23.50;99.00;;;;;;21011198;28;20037;-57
2023/06/08 09:13:20;;;;;;;4.60;4.10;;;23.50;99.90;;;;;;21009439;28;20090;-54
2023/06/08 09:23:24;;;;;;;6.30;4.18;;;23.70;99.60;;;;;;21026880;28;20052;-58
2023/06/08 09:33:32;;;;;;;7.38;4.80;;;23.80;99.90;;;;;;21019182;28;20036;-57
2023/06/08 09:43:34;;;;;;;8.05;5.60;;;24.20;97.60;;;;;;21044685;28;20481;-53
2023/06/08 09:53:38;;;;;;;7.13;4.88;;;24.00;99.90;;;;;;21061631;28;20039;-57
2023/06/08 10:03:47;;;;;;;7.47;6.70;;;23.80;99.90;;;;;;21038606;28;20102;-49
2023/06/08 10:13:50;;;;;;;7.95;7.10;;;22.30;99.90;;;;;;21059739;28;20040;-55
2023/06/08 10:23:52;;;;;;;6.45;5.75;;;21.10;99.90;;;;;;21069465;28;20040;-47
2023/06/08 10:33:53;;;;;;;7.78;5.82;;;21.20;99.90;;;;;;21039189;28;20040;-46
2023/06/08 10:43:59;;;;;;;9.25;4.70;;;22.70;99.90;;;;;;21056513;28;20047;-54
2023/06/08 10:54:01;;;;;;;6.38;5.13;;;22.40;99.90;;;;;;21046415;28;20466;-45
2023/06/08 11:04:05;;;;;;;6.03;5.43;;;20.40;99.90;;;;;;21035279;28;20036;-51
2023/06/08 11:14:07;;;;;;;7.82;7.03;;;19.90;99.90;;;;;;21048325;28;20052;-53
2023/06/08 11:24:09;;;;;;;9.50;7.72;;;19.90;99.90;;;;;;21051113;28;20089;-44
2023/06/08 11:34:15;;;;;;;8.82;7.45;;;19.80;99.90;;;;;;21036460;28;20052;-45
2023/06/08 11:44:17;;;;;;;8.60;7.65;;;19.60;99.90;;;;;;21018336;28;20398;-53
2023/06/08 11:54:20;;;;;;;6.07;5.13;;;20.20;99.90;;;;;;21038690;28;20028;-51
2023/06/08 12:04:29;;;;;;;5.22;3.28;;;20.20;99.90;;;;;;21031067;28;20473;-56
2023/06/08 12:14:42;;;;;;;5.80;5.20;;;20.30;99.90;;;;;;21038131;28;20039;-57
2023/06/08 12:24:44;;;;;;;5.18;4.68;;;23.10;99.90;;;;;;21037777;28;20443;-55
2023/06/08 12:34:46;;;;;;;5.57;4.97;;;22.70;99.90;;;;;;21030069;28;20041;-53
2023/06/08 12:44:47;;;;;;;5.80;5.30;;;21.30;99.90;;;;;;20982247;28;20032;-51
2023/06/08 12:54:50;;;;;;;5.85;5.07;;;21.20;99.90;;;;;;20982501;28;20028;-56
2023/06/08 13:04:52;;;;;;;5.03;3.53;;;23.00;99.90;;;;;;20979227;28;20036;-49
2023/06/08 13:14:55;;;;;;;3.80;3.42;;;24.10;99.30;;;;;;20987075;28;20040;-55
2023/06/08 13:24:57;;;;;;;5.47;3.40;;;23.40;97.90;;;;;;20983533;28;20517;-56
2023/06/08 13:34:58;;;;;;;4.78;4.25;;;24.60;98.20;;;;;;20984049;28;20120;-57
2023/06/08 13:45:01;;;;;;;4.32;4.00;;;24.80;96.90;;;;;;20994843;28;20040;-57
2023/06/08 13:55:04;;;;;;;4.70;4.30;;;25.10;96.00;;;;;;20994478;28;20032;-55
2023/06/08 14:05:06;;;;;;;4.40;4.03;;;24.90;96.70;;;;;;20990966;28;20037;-57
2023/06/08 14:15:08;;;;;;;6.03;5.43;;;25.70;95.70;;;;;;20993235;28;20098;-57
2023/06/08 14:25:10;;;;;;;5.88;5.32;;;26.80;94.60;;;;;;20996194;28;20033;-55
2023/06/08 14:35:11;;;;;;;5.32;4.80;;;26.30;93.50;;;;;;21040435;28;20045;-54
2023/06/08 14:45:14;;;;;;;5.38;4.47;;;25.40;94.80;;;;;;21073873;28;20429;-52
2023/06/08 14:55:17;;;;;;;9.88;6.63;;;24.30;94.80;;;;;;21070612;28;20035;-52
2023/06/08 15:05:18;;;;;;;7.88;6.80;;;22.10;97.10;;;;;;21055349;28;20039;-48
2023/06/08 15:15:20;;;;;;;9.80;8.82;;;20.90;99.50;;;;;;21071350;28;20032;-54
2023/06/08 15:25:21;;;;;;;7.03;6.05;;;22.00;97.70;;;;;;21070547;28;20028;-48
2023/06/08 15:35:23;;;;;;;9.50;8.10;;;23.70;96.20;;;;;;21069834;28;20100;-52
2023/06/08 15:45:24;;;;;;;13.77;8.90;;;23.00;96.20;;;;;;21069243;28;20028;-48
2023/06/08 15:55:26;;;;;;;13.98;10.75;;;21.90;99.20;;;;;;21068326;28;20028;-53
2023/06/08 16:05:28;;;;;;;15.65;13.18;;;20.20;99.90;;;;;;21065468;28;20478;-49
2023/06/08 16:15:30;;;;;;;19.55;15.55;;;19.30;99.90;;;;;;21066997;28;20036;-53
2023/06/08 16:25:32;;;;;;;23.13;18.30;;;19.00;99.90;;;;;;21066704;28;20036;-51
2023/06/08 16:35:33;;;;;;;26.08;20.77;;;18.80;99.90;;;;;;21066195;28;20036;-50
2023/06/08 16:45:35;;;;;;;24.90;19.95;;;18.70;99.90;;;;;;21065758;28;20050;-56
2023/06/08 16:55:37;;;;;;;23.45;20.30;;;18.50;99.90;;;;;;21065105;28;20419;-49
2023/06/08 17:05:38;;;;;;;22.92;19.52;;;18.20;99.90;;;;;;21065117;28;20096;-50
2023/06/08 17:15:40;;;;;;;25.35;20.48;;;18.00;99.90;;;;;;21077205;28;20131;-54
2023/06/08 17:25:42;;;;;;;25.17;20.95;;;17.60;99.90;;;;;;21077222;28;20028;-54
2023/06/08 17:35:44;;;;;;;25.88;20.80;;;17.20;99.90;;;;;;21081608;28;20040;-53
2023/06/08 17:45:46;;;;;;;27.25;22.13;;;17.20;99.90;;;;;;21076257;28;20105;-55
2023/06/08 17:55:47;;;;;;;27.05;23.08;;;17.10;99.90;;;;;;21077904;28;20442;-52
2023/06/08 18:05:49;;;;;;;27.83;23.05;;;16.90;99.90;;;;;;21074489;28;20042;-52
2023/06/08 18:15:51;;;;;;;30.95;23.45;;;16.60;99.90;;;;;;21059035;28;20101;-49
2023/06/08 18:25:53;;;;;;;28.48;21.08;;;16.10;99.90;;;;;;21075072;28;20032;-44
2023/06/08 18:35:55;;;;;;;15.18;12.15;;;15.70;99.90;;;;;;21074598;28;20097;-52
2023/06/08 18:45:56;;;;;;;12.15;9.52;;;15.50;99.90;;;;;;21071650;28;20028;-49
2023/06/08 18:55:58;;;;;;;11.70;9.57;;;15.20;99.90;;;;;;21073027;28;20085;-53
2023/06/08 19:06:00;;;;;;;17.95;11.70;;;14.70;99.90;;;;;;21074826;28;20032;-48
2023/06/08 19:16:05;;;;;;;16.70;12.13;;;14.40;99.90;;;;;;21071543;28;20085;-53
2023/06/08 19:26:07;;;;;;;15.70;12.55;;;14.20;99.90;;;;;;21070658;28;20472;-53
2023/06/08 19:36:09;;;;;;;12.00;9.05;;;14.20;99.90;;;;;;21050800;28;20040;-49
2023/06/08 19:46:11;;;;;;;8.85;6.28;;;14.20;99.90;;;;;;21065106;28;20032;-51
2023/06/08 19:56:13;;;;;;;6.03;4.93;;;14.20;99.90;;;;;;21068137;28;20028;-54
2023/06/08 20:06:15;;;;;;;15.30;7.63;;;13.50;99.90;;;;;;21068009;28;20028;-48
2023/06/08 20:16:17;;;;;;;13.25;8.18;;;12.30;99.90;;;;;;21068430;28;20082;-46
2023/06/08 20:26:19;;;;;;;13.98;9.43;;;11.50;99.90;;;;;;21066564;28;20054;-46
2023/06/08 20:36:21;;;;;;;14.40;10.23;;;11.10;99.90;;;;;;21066064;28;20097;-43
2023/06/08 20:46:24;;;;;;;25.50;13.93;;;10.90;99.90;;;;;;21072987;28;20035;-42
2023/06/08 20:56:26;;;;;;;26.55;15.88;;;10.80;99.90;;;;;;21081661;28;20044;-48
2023/06/08 21:06:28;;;;;;;33.63;19.02;;;10.80;99.90;;;;;;21081917;28;20036;-48
2023/06/08 21:16:29;;;;;;;39.63;23.73;;;10.70;99.90;;;;;;21062910;28;20031;-48
2023/06/08 21:26:31;;;;;;;32.72;20.35;;;10.60;99.90;;;;;;21081723;28;20051;-42
2023/06/08 21:36:33;;;;;;;43.83;23.65;;;10.50;99.90;;;;;;21079871;28;20052;-50
2023/06/08 21:46:35;;;;;;;45.20;25.35;;;10.50;99.90;;;;;;21078761;28;20028;-49
2023/06/08 21:56:36;;;;;;;54.20;28.20;;;10.40;99.90;;;;;;21076929;28;20031;-48
2023/06/08 22:06:38;;;;;;;57.40;29.15;;;10.40;99.90;;;;;;21077527;28;20028;-50
2023/06/08 22:16:41;;;;;;;59.42;32.35;;;10.40;99.90;;;;;;21076222;28;20043;-46
2023/06/08 22:26:43;;;;;;;80.57;38.78;;;10.30;99.90;;;;;;21075329;28;20469;-42
2023/06/08 22:36:44;;;;;;;94.88;41.92;;;10.40;99.90;;;;;;21075696;28;20395;-48
2023/06/08 22:46:46;;;;;;;110.10;48.30;;;10.40;99.90;;;;;;21073640;28;20028;-51
2023/06/08 22:56:48;;;;;;;107.53;46.45;;;10.30;99.90;;;;;;21073163;28;20381;-42
2023/06/08 23:06:51;;;;;;;94.88;43.80;;;10.30;99.90;;;;;;21054630;28;20036;-43
2023/06/08 23:16:53;;;;;;;102.10;48.25;;;10.30;99.90;;;;;;21067768;28;20039;-44
2023/06/08 23:26:55;;;;;;;106.18;47.70;;;10.40;99.90;;;;;;21070879;28;20032;-44
2023/06/08 23:36:57;;;;;;;108.18;50.92;;;10.60;99.90;;;;;;21068573;28;20052;-42
2023/06/08 23:46:59;;;;;;;105.95;49.53;;;10.60;99.90;;;;;;21069134;28;20036;-50
2023/06/08 23:57:00;;;;;;;123.53;55.25;;;10.60;99.90;;;;;;21068351;28;20449;-48
